Time;durP1;ratioP1;P1;durP2;ratioP2;P2;SDS_P1;SDS_P2;PMS_P1;PMS_P2;Temp;Humidity;BMP_temperature;BMP_pressure;BME280_temperature;BME280_humidity;BME280_pressure;Samples;Min_cycle;Max_cycle;Signal;HPM_P1;HPM_P2
2021/09/19 00:00:38;;;;;;;3.00;2.70;;;;;;;21.26;58.10;101708.03;4699751;30;20150;-81
2021/09/19 00:06:35;;;;;;;3.08;2.65;;;;;;;21.24;58.70;101705.44;4682645;30;20231;-81
2021/09/19 00:09:29;;;;;;;3.75;2.85;;;;;;;21.23;58.40;101708.94;4686956;30;20069;-82
2021/09/19 00:12:40;;;;;;;2.85;2.58;;;;;;;21.24;58.49;101708.06;4696077;30;20057;-81
2021/09/19 00:15:49;;;;;;;3.17;2.28;;;;;;;21.23;57.95;101706.34;4617615;31;20417;-82
2021/09/19 00:22:11;;;;;;;5.10;2.92;;;;;;;21.22;59.00;101695.88;4691972;30;20078;-82
2021/09/19 00:42:26;;;;;;;3.40;2.42;;;;;;;21.21;59.34;101689.78;4722525;30;20062;-82
2021/09/19 00:52:41;;;;;;;2.65;2.20;;;;;;;21.21;58.33;101681.03;4720150;30;20044;-82
2021/09/19 00:59:26;;;;;;;2.85;2.30;;;;;;;21.22;58.31;101685.41;4722711;30;20037;-82
2021/09/19 01:12:12;;;;;;;2.58;2.17;;;;;;;21.24;61.06;101681.00;4701451;30;20098;-82
2021/09/19 01:15:30;;;;;;;2.60;2.20;;;;;;;21.24;59.25;101681.88;4706940;30;20082;-82
2021/09/19 01:21:52;;;;;;;2.30;2.10;;;;;;;21.23;58.14;101676.66;4683983;30;20039;-81
2021/09/19 01:32:23;;;;;;;3.10;2.47;;;;;;;21.26;58.64;101674.00;4622926;31;20095;-82
2021/09/19 01:45:26;;;;;;;2.55;1.98;;;;;;;21.21;59.32;101658.38;4568980;31;20044;-82
2021/09/19 01:48:11;;;;;;;3.08;2.33;;;;;;;21.23;59.00;101664.44;4566852;31;20082;-81
2021/09/19 01:54:47;;;;;;;2.42;1.98;;;;;;;21.26;58.91;101659.16;4585755;31;20050;-82
2021/09/19 02:46:11;;;;;;;2.20;2.00;;;;;;;21.32;58.19;101630.28;4655964;30;21116;-82
2021/09/19 02:52:57;;;;;;;2.25;1.90;;;;;;;21.32;57.89;101622.44;4636236;30;20066;-82
2021/09/19 04:42:04;;;;;;;1.80;1.67;;;;;;;21.37;57.86;101586.59;5661630;24;20118;-80
2021/09/19 04:44:30;;;;;;;1.73;1.42;;;;;;;21.36;57.88;101591.84;4738225;30;20124;-80
2021/09/19 04:46:56;;;;;;;1.92;1.63;;;;;;;21.36;57.74;101587.47;4744025;30;20074;-80
2021/09/19 04:49:24;;;;;;;1.25;1.15;;;;;;;21.36;57.50;101587.47;4759849;30;20026;-81
2021/09/19 04:51:50;;;;;;;1.98;1.60;;;;;;;21.36;57.72;101583.97;4759045;30;20047;-80
2021/09/19 04:54:15;;;;;;;1.35;1.25;;;;;;;21.35;57.69;101584.88;4747552;30;20029;-80
2021/09/19 04:56:42;;;;;;;2.75;1.30;;;;;;;21.37;57.88;101591.81;4750022;30;20412;-80
2021/09/19 04:59:09;;;;;;;1.85;1.70;;;;;;;21.36;57.58;101587.47;4742216;30;20041;-80
2021/09/19 05:01:34;;;;;;;1.65;1.40;;;;;;;21.36;57.61;101589.22;4755550;30;20012;-79
2021/09/19 05:03:59;;;;;;;1.63;1.40;;;;;;;21.36;57.65;101589.22;4759386;30;20044;-79
2021/09/19 05:06:25;;;;;;;2.20;1.60;;;;;;;21.35;57.61;101584.88;4774161;30;20071;-79
2021/09/19 05:08:52;;;;;;;2.15;1.75;;;;;;;21.33;57.59;101592.75;4767451;30;20402;-79
2021/09/19 05:11:23;;;;;;;1.95;1.42;;;;;;;21.34;57.84;101583.16;4765045;30;20459;-79
2021/09/19 05:13:50;;;;;;;1.55;1.38;;;;;;;21.35;57.61;101595.34;4735502;30;20056;-79
2021/09/19 05:16:16;;;;;;;1.80;1.60;;;;;;;21.36;57.58;101594.44;4734979;30;20036;-79
2021/09/19 05:18:42;;;;;;;2.58;1.58;;;;;;;21.34;57.13;101598.88;4765805;30;20434;-79
2021/09/19 05:21:08;;;;;;;2.50;1.73;;;;;;;21.32;57.76;101592.78;4765493;30;20032;-79
2021/09/19 05:23:34;;;;;;;2.13;1.40;;;;;;;21.33;57.61;101591.88;4762228;30;20064;-80
2021/09/19 05:26:00;;;;;;;1.65;1.50;;;;;;;21.33;57.74;101592.75;4718497;30;20078;-81
2021/09/19 05:28:31;;;;;;;3.15;1.58;;;;;;;21.35;57.61;101596.22;4738585;30;20124;-80
2021/09/19 05:30:57;;;;;;;1.77;1.60;;;;;;;21.34;57.54;101591.03;4735569;30;20048;-79
2021/09/19 05:33:23;;;;;;;2.53;1.80;;;;;;;21.33;57.63;101589.28;4730072;30;20036;-80
2021/09/19 05:35:48;;;;;;;2.17;1.77;;;;;;;21.31;57.65;101591.91;4749147;30;20067;-80
2021/09/19 05:38:14;;;;;;;1.67;1.40;;;;;;;21.30;57.40;101587.56;4715105;30;20063;-81
2021/09/19 05:40:46;;;;;;;1.70;1.42;;;;;;;21.31;57.46;101591.91;4739744;30;20054;-81
2021/09/19 05:43:11;;;;;;;2.58;1.70;;;;;;;21.32;57.46;101592.78;4731978;30;20082;-81
2021/09/19 05:45:56;;;;;;;1.98;1.83;;;;;;;21.31;57.19;101596.28;4743764;30;20040;-81
2021/09/19 05:48:21;;;;;;;2.05;1.85;;;;;;;21.31;57.21;101594.50;4727760;30;20094;-81
2021/09/19 05:50:48;;;;;;;2.10;1.90;;;;;;;21.30;57.42;101591.94;4729337;30;20040;-81
2021/09/19 05:53:13;;;;;;;2.85;2.00;;;;;;;21.31;57.56;101598.88;4746452;30;20064;-80
2021/09/19 05:55:40;;;;;;;1.77;1.67;;;;;;;21.30;57.34;101594.56;4748907;30;20047;-81
2021/09/19 05:58:06;;;;;;;1.50;1.25;;;;;;;21.32;57.40;101596.25;4749705;30;20045;-81
2021/09/19 06:00:31;;;;;;;1.52;1.42;;;;;;;21.34;57.50;101591.03;4734574;30;20064;-81
2021/09/19 06:02:57;;;;;;;1.80;1.50;;;;;;;21.35;57.57;101598.81;4733449;30;20053;-81
2021/09/19 06:05:29;;;;;;;1.30;1.17;;;;;;;21.35;57.35;101595.34;4748001;30;20153;-82
2021/09/19 06:07:58;;;;;;;1.98;1.77;;;;;;;21.34;57.36;101601.50;4746062;30;20036;-79
2021/09/19 06:10:23;;;;;;;1.90;1.67;;;;;;;21.35;57.54;101605.81;4728629;30;20037;-81
2021/09/19 06:12:49;;;;;;;1.85;1.52;;;;;;;21.34;56.85;101604.97;4716668;30;20093;-80
2021/09/19 06:15:14;;;;;;;1.90;1.50;;;;;;;21.35;57.01;101601.44;4743373;30;20110;-80
2021/09/19 06:17:40;;;;;;;2.08;1.40;;;;;;;21.37;57.37;101611.91;4745434;30;20037;-79
2021/09/19 06:20:06;;;;;;;2.85;1.20;;;;;;;21.37;57.22;101617.16;4745757;30;20377;-79
2021/09/19 06:22:32;;;;;;;6.38;1.67;;;;;;;21.39;57.41;101612.75;4745163;30;20079;-78
2021/09/19 06:24:58;;;;;;;1.95;1.58;;;;;;;21.37;57.37;101617.16;4744689;30;20045;-78
2021/09/19 06:27:23;;;;;;;1.77;1.50;;;;;;;21.37;57.34;101615.38;4730387;30;20037;-79
2021/09/19 06:29:50;;;;;;;1.90;1.42;;;;;;;21.39;57.48;101615.38;4729973;30;20037;-78
2021/09/19 06:32:16;;;;;;;3.17;1.45;;;;;;;21.37;57.04;101609.28;4743750;30;20062;-79
2021/09/19 06:34:42;;;;;;;2.55;2.17;;;;;;;21.37;56.77;101614.53;4745583;30;20042;-79
2021/09/19 06:37:08;;;;;;;2.67;2.25;;;;;;;21.36;56.76;101618.91;4744121;30;20115;-79
2021/09/19 06:39:36;;;;;;;2.78;2.45;;;;;;;21.32;56.20;101611.97;4748681;30;20028;-79
2021/09/19 06:42:01;;;;;;;5.63;2.50;;;;;;;21.29;56.44;101622.47;4746788;30;20366;-80
2021/09/19 06:44:27;;;;;;;3.42;2.25;;;;;;;21.28;56.43;101618.13;4741332;30;20109;-79
2021/09/19 06:46:56;;;;;;;22.13;8.10;;;;;;;21.33;56.57;101618.91;4740934;30;20100;-79
2021/09/19 06:49:23;;;;;;;23.52;8.32;;;;;;;21.41;56.62;101625.84;4740062;30;20129;-79
2021/09/19 06:52:28;;;;;;;20.20;6.70;;;;;;;21.51;56.03;101625.72;4745112;30;20075;-78
2021/09/19 06:54:53;;;;;;;12.82;5.10;;;;;;;21.66;55.97;101629.00;4744466;30;20035;-77
2021/09/19 06:57:19;;;;;;;13.07;4.70;;;;;;;21.63;56.62;101629.91;4741035;30;20036;-77
2021/09/19 06:59:44;;;;;;;12.25;4.00;;;;;;;21.55;56.75;101632.63;4745223;30;20044;-78
2021/09/19 07:02:10;;;;;;;8.70;3.80;;;;;;;21.45;56.97;101638.91;4723415;30;20032;-77
2021/09/19 07:04:35;;;;;;;6.20;4.32;;;;;;;21.36;55.98;101637.22;4709466;30;20135;-77
2021/09/19 07:07:00;;;;;;;8.05;4.78;;;;;;;21.23;55.00;101640.00;4739156;30;20067;-77
2021/09/19 07:09:26;;;;;;;8.70;4.20;;;;;;;21.14;56.64;101633.13;4725122;30;20040;-77
2021/09/19 07:11:51;;;;;;;6.18;4.55;;;;;;;21.15;56.24;101640.97;4723648;30;20071;-77
2021/09/19 07:14:16;;;;;;;7.78;4.63;;;;;;;21.15;56.62;101640.09;4724828;30;20477;-77
2021/09/19 07:16:42;;;;;;;7.22;5.15;;;;;;;21.11;54.55;101634.03;4724263;30;20507;-77
2021/09/19 07:19:07;;;;;;;6.75;4.60;;;;;;;21.32;54.23;101638.16;4723307;30;20060;-77
2021/09/19 07:21:33;;;;;;;5.13;4.63;;;;;;;21.32;54.72;101634.69;4723864;30;20040;-78
2021/09/19 07:23:58;;;;;;;6.47;4.65;;;;;;;21.29;54.34;101632.94;4710633;30;20040;-77
2021/09/19 07:26:24;;;;;;;5.22;4.63;;;;;;;21.29;53.07;101630.31;4740396;30;20044;-77
2021/09/19 07:28:49;;;;;;;5.53;4.80;;;;;;;21.26;53.05;101630.38;4724454;30;20124;-77
2021/09/19 07:31:15;;;;;;;5.82;5.20;;;;;;;21.35;53.63;101629.38;4724041;30;20090;-77
2021/09/19 07:33:43;;;;;;;5.70;4.75;;;;;;;21.30;53.61;101642.53;4709262;30;20043;-77
2021/09/19 07:36:09;;;;;;;6.13;5.07;;;;;;;21.12;54.10;101635.78;4722158;30;20029;-76
2021/09/19 07:38:35;;;;;;;4.82;3.90;;;;;;;21.08;53.97;101639.31;4709206;30;20102;-76
2021/09/19 07:41:00;;;;;;;4.90;4.40;;;;;;;21.01;54.11;101650.72;4723901;30;20101;-77
2021/09/19 07:43:26;;;;;;;5.20;4.40;;;;;;;20.99;53.86;101649.00;4724302;30;20152;-77
2021/09/19 07:45:53;;;;;;;5.53;4.35;;;;;;;21.03;52.96;101655.94;4736985;30;20106;-77
2021/09/19 07:48:21;;;;;;;6.03;4.50;;;;;;;20.98;53.31;101655.13;4738461;30;20098;-77
2021/09/19 07:50:46;;;;;;;4.68;4.15;;;;;;;21.05;53.45;101648.94;4749294;30;20039;-77
2021/09/19 07:53:12;;;;;;;4.47;4.00;;;;;;;21.05;53.77;101654.16;4748812;30;20037;-79
2021/09/19 07:55:41;;;;;;;4.88;3.80;;;;;;;21.12;53.76;101654.09;4727638;30;20036;-81
2021/09/19 07:58:07;;;;;;;4.13;3.20;;;;;;;21.28;54.50;101654.78;4726754;30;20028;-79
2021/09/19 08:00:53;;;;;;;8.63;2.60;;;;;;;21.78;54.14;101657.66;4729165;30;20110;-80
2021/09/19 08:03:18;;;;;;;6.28;2.63;;;;;;;21.88;55.80;101656.63;4723529;30;20099;-78
2021/09/19 08:05:43;;;;;;;34.78;3.63;;;;;;;21.96;58.54;101660.00;4723689;30;20037;-78
2021/09/19 08:08:09;;;;;;;4.78;2.50;;;;;;;21.76;62.40;101654.19;4723492;30;20045;-78
2021/09/19 08:10:34;;;;;;;4.95;2.40;;;;;;;21.84;60.96;101652.34;4707192;30;20519;-78
2021/09/19 08:12:59;;;;;;;12.15;3.60;;;;;;;21.86;60.83;101647.06;4708972;30;20095;-77
2021/09/19 08:15:26;;;;;;;13.93;4.30;;;;;;;21.64;60.72;101642.13;4734848;30;20041;-77
2021/09/19 08:17:52;;;;;;;12.68;4.18;;;;;;;21.76;60.62;101655.06;4749106;30;20040;-76
2021/09/19 08:20:18;;;;;;;16.88;4.40;;;;;;;21.88;59.81;101650.53;4743377;30;20052;-77
2021/09/19 08:22:44;;;;;;;13.40;3.78;;;;;;;21.92;60.00;101642.59;4743975;30;20082;-78
2021/09/19 08:25:11;;;;;;;13.20;4.05;;;;;;;21.90;60.10;101640.88;4751106;30;20036;-78
2021/09/19 08:27:37;;;;;;;12.95;3.65;;;;;;;21.87;60.79;101641.78;4751121;30;20040;-78
2021/09/19 08:30:05;;;;;;;8.93;3.80;;;;;;;21.87;60.20;101644.41;4732650;30;20048;-78
2021/09/19 08:32:31;;;;;;;7.65;3.58;;;;;;;21.88;60.16;101643.50;4744825;30;20041;-78
2021/09/19 08:34:56;;;;;;;10.38;3.90;;;;;;;21.83;60.47;101645.34;4718221;30;20112;-79
2021/09/19 08:37:21;;;;;;;9.48;3.50;;;;;;;21.88;59.00;101640.91;4732375;30;20041;-78
2021/09/19 08:39:47;;;;;;;7.93;3.40;;;;;;;21.95;60.30;101646.94;4746184;30;20072;-78
2021/09/19 08:42:12;;;;;;;6.90;3.22;;;;;;;21.85;60.35;101647.94;4731234;30;20133;-79
2021/09/19 08:44:38;;;;;;;7.13;3.33;;;;;;;21.83;59.61;101645.34;4748520;30;20071;-78
2021/09/19 08:47:04;;;;;;;7.22;3.33;;;;;;;21.83;60.63;101645.34;4747739;30;20040;-78
2021/09/19 08:49:31;;;;;;;7.28;2.60;;;;;;;21.80;60.25;101650.66;4746538;30;20044;-78
2021/09/19 08:51:57;;;;;;;5.40;2.95;;;;;;;21.77;60.47;101653.28;4747819;30;20048;-78
2021/09/19 08:54:22;;;;;;;5.05;2.70;;;;;;;21.76;60.75;101644.56;4747258;30;20043;-78
2021/09/19 08:56:48;;;;;;;4.47;2.88;;;;;;;21.76;60.06;101634.09;4747067;30;20067;-78
2021/09/19 08:59:13;;;;;;;7.72;2.83;;;;;;;21.70;60.19;101633.31;4747857;30;20055;-79
2021/09/19 09:01:59;;;;;;;5.35;2.50;;;;;;;21.71;60.35;101641.16;4747581;30;20037;-78
2021/09/19 09:04:25;;;;;;;5.13;3.05;;;;;;;21.70;60.36;101644.66;4730869;30;20028;-78
2021/09/19 09:06:52;;;;;;;7.93;2.53;;;;;;;21.75;60.47;101641.97;4762400;30;20130;-78
2021/09/19 09:09:18;;;;;;;5.13;2.97;;;;;;;21.73;59.24;101643.75;4732039;30;20100;-78
2021/09/19 09:12:02;;;;;;;4.85;2.70;;;;;;;21.69;60.17;101645.56;4746106;30;20063;-78
2021/09/19 09:14:28;;;;;;;4.60;2.50;;;;;;;21.68;60.40;101648.19;4757960;30;20483;-78
2021/09/19 09:17:14;;;;;;;6.25;2.72;;;;;;;21.67;59.71;101647.31;4743314;30;20048;-77
2021/09/19 09:19:47;;;;;;;5.05;2.80;;;;;;;21.69;59.95;101652.56;4761457;30;20028;-77
2021/09/19 09:22:13;;;;;;;4.55;2.70;;;;;;;21.65;60.06;101661.34;4748502;30;20495;-78
2021/09/19 09:24:41;;;;;;;5.50;2.60;;;;;;;21.59;60.47;101658.78;4761660;30;20119;-78
2021/09/19 09:27:26;;;;;;;5.88;2.63;;;;;;;21.66;58.01;101653.44;4744547;30;20028;-79
2021/09/19 09:30:25;;;;;;;5.85;2.60;;;;;;;21.63;59.90;101657.88;4747908;30;20044;-78
2021/09/19 09:32:57;;;;;;;3.63;2.30;;;;;;;21.63;60.33;101655.25;4728270;30;20202;-78
2021/09/19 09:35:29;;;;;;;3.05;2.13;;;;;;;21.70;58.67;101646.41;4756035;30;20039;-77
2021/09/19 09:37:54;;;;;;;6.15;2.40;;;;;;;21.66;59.29;101655.19;4757639;30;20039;-77
2021/09/19 09:40:27;;;;;;;3.60;2.50;;;;;;;21.67;59.14;101655.19;4728399;30;20061;-78
2021/09/19 09:43:15;;;;;;;5.35;2.20;;;;;;;21.74;59.03;101642.88;4745205;30;20570;-78
2021/09/19 09:45:42;;;;;;;3.45;2.13;;;;;;;21.78;58.35;101661.13;4742175;30;20138;-78
2021/09/19 09:48:31;;;;;;;5.50;2.40;;;;;;;21.72;58.92;101665.59;4760365;30;20036;-78
2021/09/19 09:51:02;;;;;;;3.42;1.95;;;;;;;21.74;58.52;101669.06;4744463;30;20090;-78
2021/09/19 09:53:28;;;;;;;3.58;2.10;;;;;;;21.79;58.25;101669.84;4760820;30;20040;-78
2021/09/19 09:55:58;;;;;;;5.18;2.42;;;;;;;21.79;57.42;101669.84;4745096;30;20569;-78
2021/09/19 09:58:23;;;;;;;5.75;2.22;;;;;;;21.84;57.88;101686.41;4744554;30;20091;-78
2021/09/19 10:00:51;;;;;;;3.78;2.20;;;;;;;21.81;56.90;101683.81;4747291;30;20029;-78
2021/09/19 10:03:17;;;;;;;3.17;2.15;;;;;;;21.81;57.57;101686.41;4761572;30;20105;-78
2021/09/19 10:05:43;;;;;;;5.85;2.30;;;;;;;21.84;57.27;101685.50;4732636;30;20404;-78
2021/09/19 10:08:12;;;;;;;3.85;2.30;;;;;;;21.87;57.02;101691.59;4746898;30;20127;-78
2021/09/19 10:10:41;;;;;;;3.97;1.85;;;;;;;21.85;57.92;101700.34;4747928;30;20040;-79
2021/09/19 10:13:07;;;;;;;3.50;2.10;;;;;;;21.81;58.24;101694.28;4748129;30;20028;-78
2021/09/19 10:15:33;;;;;;;2.97;2.10;;;;;;;21.84;56.33;101685.50;4754977;30;20128;-79
2021/09/19 10:17:59;;;;;;;3.47;2.10;;;;;;;21.79;57.95;101690.81;4751531;30;20449;-78
2021/09/19 10:20:36;;;;;;;3.28;2.03;;;;;;;21.77;57.29;101679.50;4735944;30;20024;-78
2021/09/19 10:23:05;;;;;;;3.65;2.03;;;;;;;21.79;57.36;101685.56;4764455;30;20051;-78
2021/09/19 10:25:53;;;;;;;2.40;1.85;;;;;;;21.78;57.33;101683.84;4748626;30;20039;-78
2021/09/19 10:28:36;;;;;;;2.38;1.67;;;;;;;21.84;57.95;101683.78;4748499;30;20042;-77
2021/09/19 10:31:23;;;;;;;3.45;1.92;;;;;;;21.82;56.82;101674.19;4747333;30;20036;-78
2021/09/19 10:33:54;;;;;;;3.22;2.05;;;;;;;21.81;57.08;101665.47;4746922;30;20040;-78
2021/09/19 10:36:36;;;;;;;4.15;2.03;;;;;;;21.73;58.28;101660.34;4746406;30;20032;-78
2021/09/19 10:39:18;;;;;;;2.97;2.00;;;;;;;21.70;57.54;101660.38;4761141;30;20032;-78
2021/09/19 10:42:07;;;;;;;2.80;1.90;;;;;;;21.74;56.92;101650.72;4757784;30;20121;-78
2021/09/19 10:44:50;;;;;;;2.28;1.73;;;;;;;21.75;56.83;101645.47;4757047;30;20058;-78
2021/09/19 10:47:25;;;;;;;3.25;2.05;;;;;;;21.72;56.77;101648.13;4747329;30;20040;-78
2021/09/19 10:50:10;;;;;;;4.10;2.00;;;;;;;21.71;56.54;101641.16;4758743;30;20069;-78
2021/09/19 10:52:45;;;;;;;2.78;1.92;;;;;;;21.71;56.24;101640.28;4741564;30;20058;-78
2021/09/19 10:55:25;;;;;;;2.38;1.73;;;;;;;21.73;56.67;101646.34;4741269;30;20062;-78
2021/09/19 10:57:58;;;;;;;4.35;2.03;;;;;;;21.71;56.32;101633.31;4742949;30;20469;-78
2021/09/19 11:00:24;;;;;;;2.80;1.80;;;;;;;21.72;56.39;101637.63;4741714;30;20028;-78
2021/09/19 11:02:59;;;;;;;2.42;1.80;;;;;;;21.71;56.96;101641.16;4730525;30;20040;-78
2021/09/19 11:05:29;;;;;;;3.03;2.10;;;;;;;21.72;58.25;101644.63;4745511;30;20032;-77
2021/09/19 11:08:08;;;;;;;2.30;1.80;;;;;;;21.73;56.37;101641.13;4743532;30;20040;-79
2021/09/19 11:10:50;;;;;;;2.88;2.28;;;;;;;21.76;57.12;101635.84;4760148;30;20036;-79
2021/09/19 11:13:34;;;;;;;2.75;1.80;;;;;;;21.77;55.62;101640.19;4742989;30;20060;-77
2021/09/19 11:16:03;;;;;;;2.58;2.05;;;;;;;21.82;56.28;101640.13;4740408;30;20106;-77
2021/09/19 11:18:34;;;;;;;2.03;1.60;;;;;;;21.80;55.11;101637.53;4744471;30;20063;-78
2021/09/19 11:21:21;;;;;;;2.53;1.80;;;;;;;21.83;56.68;101639.25;4746936;30;20056;-78
2021/09/19 11:24:01;;;;;;;2.58;1.63;;;;;;;21.80;56.16;101632.31;4746335;30;20032;-78
2021/09/19 11:26:35;;;;;;;3.08;2.03;;;;;;;21.82;55.67;101634.88;4762121;30;20032;-78
2021/09/19 11:29:05;;;;;;;2.42;1.80;;;;;;;21.89;55.87;101634.78;4746144;30;20055;-78
2021/09/19 11:31:32;;;;;;;2.50;1.80;;;;;;;21.90;55.83;101630.41;4761804;30;20484;-78
2021/09/19 11:34:06;;;;;;;2.15;1.60;;;;;;;21.91;55.87;101629.53;4717159;30;20051;-78
2021/09/19 11:36:31;;;;;;;2.53;1.50;;;;;;;21.93;56.24;101631.22;4745866;30;20472;-79
2021/09/19 11:38:57;;;;;;;2.83;1.40;;;;;;;21.92;55.50;101633.88;4748353;30;20040;-79
2021/09/19 11:41:23;;;;;;;3.17;1.60;;;;;;;21.96;55.18;101636.41;4763529;30;20031;-80
2021/09/19 11:43:52;;;;;;;1.60;1.30;;;;;;;21.98;55.14;101628.53;4734282;30;20059;-79
2021/09/19 11:46:19;;;;;;;2.33;1.50;;;;;;;21.98;55.23;101636.41;4765262;30;20032;-79
2021/09/19 11:48:45;;;;;;;1.80;1.52;;;;;;;21.98;54.60;101632.00;4765091;30;20036;-76
2021/09/19 11:51:15;;;;;;;2.10;1.77;;;;;;;21.96;55.13;101632.94;4744989;30;20024;-77
2021/09/19 11:53:47;;;;;;;3.28;1.75;;;;;;;22.01;54.92;101635.47;4749251;30;20464;-76
2021/09/19 11:56:16;;;;;;;2.03;1.38;;;;;;;22.01;54.84;101633.72;4749084;30;20090;-77
2021/09/19 11:58:43;;;;;;;2.72;1.55;;;;;;;21.94;54.16;101629.47;4731147;30;20047;-77
2021/09/19 12:01:12;;;;;;;2.53;1.60;;;;;;;21.94;55.08;101632.09;4731704;30;20082;-76
2021/09/19 12:03:40;;;;;;;1.88;1.48;;;;;;;21.90;55.80;101628.63;4733442;30;20044;-79
2021/09/19 12:06:08;;;;;;;2.88;1.58;;;;;;;21.89;55.21;101632.16;4734287;30;20032;-77
2021/09/19 12:08:35;;;;;;;1.85;1.35;;;;;;;21.94;54.82;101621.59;4749808;30;20040;-79
2021/09/19 12:11:04;;;;;;;3.50;1.58;;;;;;;21.96;54.87;101625.94;4748257;30;20068;-78
2021/09/19 12:13:32;;;;;;;7.43;1.55;;;;;;;21.99;54.62;101619.78;4763260;30;20081;-76
2021/09/19 12:16:03;;;;;;;2.65;1.27;;;;;;;22.01;55.13;101611.91;4763689;30;20083;-77
2021/09/19 12:18:33;;;;;;;3.13;1.30;;;;;;;22.01;54.66;101618.00;4763026;30;20028;-77
2021/09/19 12:21:21;;;;;;;3.13;1.20;;;;;;;22.06;54.50;101625.78;4749265;30;20091;-79
2021/09/19 12:24:01;;;;;;;1.60;1.20;;;;;;;22.04;54.33;101617.97;4726015;30;20046;-76
2021/09/19 12:26:29;;;;;;;2.00;1.58;;;;;;;21.93;55.99;101612.88;4759828;30;20047;-78
2021/09/19 12:28:57;;;;;;;1.90;1.45;;;;;;;21.71;56.43;101620.22;4748310;30;20062;-77
2021/09/19 12:32:00;;;;;;;3.47;1.77;;;;;;;21.66;53.70;101611.53;4764793;30;20068;-77
2021/09/19 12:34:26;;;;;;;2.45;1.70;;;;;;;21.60;52.75;101609.03;4765105;30;20040;-77
2021/09/19 12:36:55;;;;;;;2.80;1.90;;;;;;;21.59;51.94;101603.78;4747984;30;20123;-77
2021/09/19 12:39:24;;;;;;;2.15;1.92;;;;;;;21.56;51.83;101607.31;4760522;30;20123;-77
2021/09/19 12:41:52;;;;;;;3.13;2.08;;;;;;;21.52;51.27;101605.63;4747076;30;20032;-78
2021/09/19 12:44:22;;;;;;;10.35;2.40;;;;;;;21.53;51.15;101599.50;4748196;30;20485;-78
2021/09/19 12:46:57;;;;;;;5.18;2.50;;;;;;;21.51;52.33;101604.78;4739112;30;20057;-80
2021/09/19 12:49:34;;;;;;;4.45;1.98;;;;;;;21.56;52.44;101600.34;4765614;30;20085;-80
2021/09/19 12:52:12;;;;;;;4.63;1.83;;;;;;;21.63;54.37;101593.25;4757741;30;20175;-79
2021/09/19 12:54:53;;;;;;;3.05;1.75;;;;;;;21.70;52.19;101592.25;4769817;30;20055;-79
2021/09/19 12:57:24;;;;;;;6.18;2.20;;;;;;;21.75;53.25;101594.81;4754601;30;20513;-79
2021/09/19 12:59:51;;;;;;;11.85;2.60;;;;;;;21.77;54.29;101587.78;4752895;30;20396;-77
2021/09/19 13:02:20;;;;;;;9.57;2.75;;;;;;;21.78;55.16;101584.31;4772299;30;20058;-79
2021/09/19 13:04:47;;;;;;;12.48;2.97;;;;;;;21.84;53.64;101594.69;4777632;30;20031;-79
2021/09/19 13:07:14;;;;;;;9.80;3.80;;;;;;;21.84;54.19;101589.44;4785663;30;20038;-79
2021/09/19 13:09:41;;;;;;;8.55;3.45;;;;;;;21.84;53.94;101591.19;4754804;30;20040;-79
2021/09/19 13:12:07;;;;;;;7.03;2.90;;;;;;;21.84;53.86;101581.59;4768911;30;20032;-78
2021/09/19 13:14:35;;;;;;;9.93;3.05;;;;;;;21.87;53.77;101593.78;4786929;30;20035;-79
2021/09/19 13:17:01;;;;;;;5.28;2.30;;;;;;;21.87;52.60;101584.16;4756082;30;20059;-79
2021/09/19 13:19:27;;;;;;;4.20;2.40;;;;;;;21.88;52.92;101579.78;4771135;30;20031;-79
2021/09/19 13:21:53;;;;;;;4.35;2.30;;;;;;;21.84;53.86;101578.09;4789382;30;20028;-80
2021/09/19 13:24:20;;;;;;;4.35;2.20;;;;;;;21.80;53.89;101579.91;4775170;30;20038;-79
2021/09/19 13:26:47;;;;;;;3.97;2.20;;;;;;;21.84;53.23;101578.97;4774568;30;20031;-79
2021/09/19 13:29:14;;;;;;;4.70;2.00;;;;;;;21.84;52.15;101578.97;4760330;30;20036;-79
2021/09/19 13:31:40;;;;;;;4.32;2.10;;;;;;;21.82;53.27;101587.72;4759671;30;20050;-80
2021/09/19 13:34:06;;;;;;;6.30;1.83;;;;;;;21.84;52.66;101581.59;4775339;30;20052;-79
2021/09/19 13:36:32;;;;;;;3.13;1.92;;;;;;;21.86;53.07;101594.66;4774200;30;20035;-79
2021/09/19 13:38:57;;;;;;;5.68;2.25;;;;;;;21.85;52.35;101580.69;4775542;30;20036;-80
2021/09/19 13:41:24;;;;;;;2.40;1.70;;;;;;;21.85;52.60;101580.69;4777605;30;20180;-80
2021/09/19 13:43:52;;;;;;;5.10;1.77;;;;;;;21.86;53.48;101576.31;4774198;30;20079;-80
2021/09/19 13:46:19;;;;;;;2.65;1.60;;;;;;;21.85;53.00;101575.44;4759142;30;20040;-80
2021/09/19 13:48:46;;;;;;;2.15;1.60;;;;;;;21.86;51.97;101573.69;4773369;30;20032;-80
2021/09/19 13:51:13;;;;;;;3.10;1.80;;;;;;;21.85;53.02;101567.59;4758163;30;20032;-81
2021/09/19 13:53:38;;;;;;;2.00;1.70;;;;;;;21.85;52.52;101574.59;4772705;30;20024;-80
2021/09/19 13:56:05;;;;;;;2.50;1.95;;;;;;;21.82;52.55;101566.75;4759428;30;20047;-81
2021/09/19 13:58:31;;;;;;;3.13;1.77;;;;;;;21.85;51.98;101569.34;4759424;30;20039;-80
2021/09/19 14:00:57;;;;;;;2.97;1.95;;;;;;;21.85;51.73;101564.97;4759200;30;20020;-80
2021/09/19 14:03:22;;;;;;;2.05;1.55;;;;;;;21.84;51.42;101572.84;4769626;30;20036;-80
2021/09/19 14:05:48;;;;;;;4.60;1.80;;;;;;;21.81;51.88;101572.91;4768696;30;20043;-79
2021/09/19 14:08:13;;;;;;;2.80;1.90;;;;;;;21.81;51.45;101576.38;4752523;30;20036;-79
2021/09/19 14:10:40;;;;;;;2.38;1.70;;;;;;;21.83;51.83;101576.38;4753317;30;20036;-79
2021/09/19 14:13:08;;;;;;;2.47;1.73;;;;;;;21.81;51.64;101571.13;4753217;30;20104;-80
2021/09/19 14:15:33;;;;;;;3.13;1.60;;;;;;;21.83;51.56;101573.75;4753813;30;20028;-80
2021/09/19 14:17:59;;;;;;;4.20;1.90;;;;;;;21.79;51.74;101575.53;4741264;30;20043;-80
2021/09/19 14:20:27;;;;;;;2.28;1.92;;;;;;;21.80;52.28;101565.91;4770494;30;20033;-80
2021/09/19 14:22:55;;;;;;;3.70;1.73;;;;;;;21.81;51.65;101576.38;4770389;30;20027;-80
2021/09/19 14:25:21;;;;;;;6.88;2.05;;;;;;;21.77;51.63;101575.59;4774860;30;20039;-80
2021/09/19 14:27:47;;;;;;;2.20;1.70;;;;;;;21.76;52.45;101583.47;4773748;30;20084;-81
2021/09/19 14:30:14;;;;;;;1.80;1.40;;;;;;;21.75;51.69;101586.94;4772565;30;20035;-80
2021/09/19 14:32:39;;;;;;;2.13;1.50;;;;;;;21.77;52.06;101583.44;4759094;30;20036;-80
2021/09/19 14:35:06;;;;;;;2.17;1.80;;;;;;;21.77;52.38;101587.78;4773503;30;20522;-80
2021/09/19 14:37:35;;;;;;;2.15;1.50;;;;;;;21.76;51.84;101591.31;4773326;30;20063;-80
2021/09/19 14:40:02;;;;;;;2.00;1.55;;;;;;;21.75;52.57;101592.19;4756146;30;20035;-80
2021/09/19 14:42:27;;;;;;;2.95;1.67;;;;;;;21.76;52.13;101586.94;4771950;30;20034;-80
2021/09/19 14:44:53;;;;;;;2.55;1.70;;;;;;;21.77;52.08;101590.41;4787412;30;20099;-80
2021/09/19 14:47:18;;;;;;;2.35;1.50;;;;;;;21.74;52.36;101588.72;4786147;30;20031;-80
2021/09/19 14:49:45;;;;;;;2.53;1.65;;;;;;;21.76;51.77;101591.31;4769982;30;20047;-80
2021/09/19 14:52:10;;;;;;;2.60;1.80;;;;;;;21.76;51.77;101586.06;4782942;30;20031;-80
2021/09/19 14:54:36;;;;;;;2.65;1.88;;;;;;;21.77;51.60;101590.41;4771591;30;20042;-78
2021/09/19 14:57:03;;;;;;;2.45;1.73;;;;;;;21.76;51.98;101586.94;4742525;30;20048;-81
2021/09/19 14:59:29;;;;;;;1.65;1.50;;;;;;;21.77;51.74;101595.66;4770223;30;20104;-80
2021/09/19 15:01:54;;;;;;;2.17;1.73;;;;;;;21.78;51.67;101595.63;4757772;30;20074;-81
2021/09/19 15:04:20;;;;;;;3.03;1.70;;;;;;;21.77;51.85;101595.66;4776517;30;20096;-81
2021/09/19 15:06:45;;;;;;;2.15;1.67;;;;;;;21.78;52.18;101597.41;4747505;30;20032;-80
2021/09/19 15:09:12;;;;;;;1.85;1.60;;;;;;;21.79;51.75;101599.13;4769321;30;20032;-80
2021/09/19 15:11:40;;;;;;;3.15;1.42;;;;;;;21.80;51.81;101592.13;4783147;30;20114;-80
2021/09/19 15:14:08;;;;;;;2.40;1.88;;;;;;;21.77;52.00;101593.94;4782513;30;20036;-79
2021/09/19 15:16:38;;;;;;;2.85;1.70;;;;;;;21.81;51.50;101596.47;4781959;30;20031;-80
2021/09/19 15:19:05;;;;;;;3.10;1.60;;;;;;;21.82;51.64;101598.19;4767095;30;20036;-80
2021/09/19 15:21:30;;;;;;;2.53;1.85;;;;;;;21.82;51.48;101598.19;4752644;30;20024;-81
2021/09/19 15:23:56;;;;;;;2.65;2.00;;;;;;;21.80;52.25;101595.63;4767344;30;20035;-79
2021/09/19 15:26:21;;;;;;;2.88;1.75;;;;;;;21.80;51.52;101592.13;4784744;30;20036;-79
2021/09/19 15:28:48;;;;;;;3.88;1.77;;;;;;;21.80;51.48;101592.13;4742223;30;20028;-79